createdAt,value
2019-03-28T00:02:05.479Z,18.93
2019-03-28T00:04:33.857Z,24.80
2019-03-28T00:07:02.305Z,19.23
2019-03-28T00:09:30.679Z,24.90
2019-03-28T00:11:59.094Z,16.67
2019-03-28T00:14:27.892Z,22.17
2019-03-28T00:16:56.281Z,27.47
2019-03-28T00:19:24.759Z,25.27
2019-03-28T00:21:53.115Z,21.33
2019-03-28T00:24:31.491Z,20.03
2019-03-28T00:26:59.929Z,22.53
2019-03-28T00:29:28.465Z,16.63
2019-03-28T00:31:57.029Z,22.47
2019-03-28T00:34:25.442Z,22.37
2019-03-28T00:36:53.808Z,21.60
2019-03-28T00:39:22.164Z,22.30
2019-03-28T00:41:50.567Z,19.53
2019-03-28T00:44:18.921Z,15.60
2019-03-28T00:46:47.302Z,25.03
2019-03-28T00:49:15.702Z,17.53
2019-03-28T00:51:44.124Z,20.17
2019-03-28T00:54:12.465Z,19.17
2019-03-28T00:56:46.967Z,22.27
2019-03-28T00:59:11.466Z,18.03
2019-03-28T01:01:39.832Z,21.40
2019-03-28T01:04:08.255Z,27.87
2019-03-28T01:06:48.467Z,23.00
2019-03-28T01:09:16.828Z,19.90
2019-03-28T01:11:45.207Z,18.17
2019-03-28T01:14:16.342Z,19.23
2019-03-28T01:16:44.724Z,20.03
2019-03-28T01:19:13.135Z,22.47
2019-03-28T01:21:41.570Z,16.60
2019-03-28T01:24:09.926Z,25.17
2019-03-28T01:26:38.356Z,20.83
2019-03-28T01:29:06.708Z,23.43
2019-03-28T01:31:35.061Z,20.67
2019-03-28T01:34:03.468Z,17.23
2019-03-28T01:36:31.847Z,21.40
2019-03-28T01:39:00.314Z,21.50
2019-03-28T01:41:28.700Z,14.90
2019-03-28T01:43:57.113Z,20.43
2019-03-28T01:46:25.513Z,23.60
2019-03-28T01:48:53.882Z,17.07
2019-03-28T01:51:22.834Z,15.03
2019-03-28T01:53:51.256Z,18.00
2019-03-28T01:56:19.668Z,22.73
2019-03-28T01:58:48.023Z,26.67
2019-03-28T02:01:17.746Z,20.50
2019-03-28T02:03:47.008Z,22.40
2019-03-28T02:06:15.416Z,19.77
2019-03-28T02:08:43.795Z,16.90
2019-03-28T02:11:12.158Z,23.23
2019-03-28T02:13:40.542Z,18.90
2019-03-28T02:16:08.929Z,20.47
2019-03-28T02:18:37.349Z,22.27
2019-03-28T02:21:05.815Z,22.10
2019-03-28T02:23:34.188Z,23.00
2019-03-28T02:26:02.568Z,20.97
2019-03-28T02:28:30.916Z,21.77
2019-03-28T02:30:59.374Z,21.23
2019-03-28T02:33:27.714Z,24.50
2019-03-28T02:35:56.051Z,23.17
2019-03-28T02:38:24.447Z,26.23
2019-03-28T02:40:52.849Z,22.47
2019-03-28T02:43:21.256Z,22.63
2019-03-28T02:45:49.611Z,21.53
2019-03-28T02:48:17.977Z,20.37
2019-03-28T02:50:46.490Z,22.33
2019-03-28T02:53:14.842Z,22.93
2019-03-28T02:55:43.222Z,23.07
2019-03-28T02:58:11.659Z,21.50
2019-03-28T03:00:40.049Z,24.30
2019-03-28T03:03:08.411Z,26.73
2019-03-28T03:05:36.765Z,23.50
2019-03-28T03:08:05.132Z,20.73
2019-03-28T03:10:33.500Z,20.60
2019-03-28T03:13:02.738Z,26.03
2019-03-28T03:15:31.091Z,21.43
2019-03-28T03:17:59.476Z,22.93
2019-03-28T03:20:27.950Z,25.00
2019-03-28T03:22:56.294Z,25.57
2019-03-28T03:25:24.695Z,24.90
2019-03-28T03:27:58.391Z,24.03
2019-03-28T03:30:23.214Z,26.33
2019-03-28T03:32:51.576Z,24.03
2019-03-28T03:35:19.955Z,24.37
2019-03-28T03:37:48.352Z,23.67
2019-03-28T03:40:16.743Z,23.93
2019-03-28T03:42:45.148Z,26.30
2019-03-28T03:45:14.002Z,25.93
2019-03-28T03:47:42.418Z,26.23
2019-03-28T03:50:12.298Z,26.03
2019-03-28T03:52:41.594Z,30.70
2019-03-28T03:55:10.160Z,26.60
2019-03-28T03:57:38.549Z,24.87
2019-03-28T04:00:07.293Z,24.80
2019-03-28T04:02:36.590Z,23.90
2019-03-28T04:05:05.547Z,25.83
2019-03-28T04:07:33.986Z,28.97
2019-03-28T04:10:02.343Z,25.73
2019-03-28T04:12:30.761Z,23.60
2019-03-28T04:14:59.165Z,24.87
2019-03-28T04:17:27.596Z,27.60
2019-03-28T04:19:56.056Z,28.13
2019-03-28T04:22:24.453Z,28.87
2019-03-28T04:24:52.788Z,25.70
2019-03-28T04:27:21.355Z,28.80
2019-03-28T04:29:52.092Z,24.20
2019-03-28T04:32:20.674Z,24.37
2019-03-28T04:34:50.287Z,29.77
2019-03-28T04:37:18.700Z,27.17
2019-03-28T04:39:47.099Z,29.33
2019-03-28T04:42:15.479Z,22.77
2019-03-28T04:44:43.895Z,31.83
2019-03-28T04:47:12.285Z,31.83
2019-03-28T04:49:40.677Z,26.23
2019-03-28T04:52:09.034Z,25.50
2019-03-28T04:54:37.397Z,33.77
2019-03-28T04:57:05.766Z,31.80
2019-03-28T04:59:34.145Z,28.03
2019-03-28T05:02:03.754Z,27.73
2019-03-28T05:04:32.568Z,30.30
2019-03-28T05:07:00.945Z,29.30
2019-03-28T05:09:29.288Z,33.23
2019-03-28T05:11:57.732Z,34.67
2019-03-28T05:14:26.142Z,27.73
2019-03-28T05:16:54.490Z,34.10
2019-03-28T05:19:23.270Z,30.27
2019-03-28T05:21:51.620Z,32.23
2019-03-28T05:24:20.334Z,28.90
2019-03-28T05:26:48.682Z,32.00
2019-03-28T05:29:17.035Z,27.47
2019-03-28T05:31:46.412Z,36.30
2019-03-28T05:34:14.732Z,29.40
2019-03-28T05:36:43.185Z,34.27
2019-03-28T05:39:11.557Z,30.47
2019-03-28T05:44:49.343Z,31.07
2019-03-28T05:48:11.381Z,32.87
2019-03-28T05:50:39.776Z,34.87
2019-03-28T05:53:09.425Z,34.20
2019-03-28T05:55:38.035Z,31.57
2019-03-28T05:58:09.367Z,34.13
2019-03-28T06:00:39.029Z,33.27
2019-03-28T06:03:06.879Z,26.77
2019-03-28T06:05:37.940Z,34.50
2019-03-28T06:08:06.431Z,26.97
2019-03-28T06:10:35.084Z,33.17
2019-03-28T06:13:06.733Z,35.07
2019-03-28T06:15:50.978Z,30.73
2019-03-28T06:18:18.170Z,31.53
2019-03-28T06:20:47.440Z,32.07
2019-03-28T06:23:15.803Z,39.27
2019-03-28T06:25:44.237Z,30.80
2019-03-28T06:28:12.623Z,36.10
2019-03-28T06:30:41.412Z,30.87
2019-03-28T06:33:13.522Z,31.03
2019-03-28T06:35:42.082Z,29.57
2019-03-28T06:38:10.465Z,32.23
2019-03-28T06:40:38.959Z,28.67
2019-03-28T06:43:07.621Z,36.07
2019-03-28T06:45:36.024Z,26.53
2019-03-28T06:48:04.379Z,29.37
2019-03-28T06:50:33.294Z,24.80
2019-03-28T06:53:02.256Z,29.17
2019-03-28T06:55:30.693Z,30.17
2019-03-28T06:58:00.981Z,27.53
2019-03-28T07:00:31.792Z,28.40
2019-03-28T07:03:16.575Z,33.40
2019-03-28T07:05:52.765Z,25.60
2019-03-28T07:08:24.173Z,26.53
2019-03-28T07:10:53.862Z,30.20
2019-03-28T07:13:28.876Z,26.57
2019-03-28T07:16:07.447Z,27.00
2019-03-28T07:18:42.215Z,27.70
2019-03-28T07:21:12.547Z,27.03
2019-03-28T07:23:41.938Z,32.97
2019-03-28T07:26:11.049Z,28.53
2019-03-28T07:28:43.184Z,34.37
2019-03-28T07:31:14.553Z,30.07
2019-03-28T07:33:48.815Z,35.37
2019-03-28T07:36:18.288Z,34.93
2019-03-28T07:38:47.451Z,31.50
2019-03-28T07:41:16.791Z,39.63
2019-03-28T07:43:45.735Z,27.23
2019-03-28T07:46:14.845Z,26.60
2019-03-28T07:48:44.253Z,35.77
2019-03-28T07:51:13.823Z,31.17
2019-03-28T07:53:44.775Z,23.57
2019-03-28T07:56:13.338Z,28.50
2019-03-28T07:58:44.123Z,27.73
2019-03-28T08:01:17.901Z,25.13
2019-03-28T08:04:06.595Z,29.03
2019-03-28T08:06:34.993Z,26.97
2019-03-28T08:09:05.500Z,26.47
2019-03-28T08:11:47.988Z,30.33
2019-03-28T08:14:14.810Z,28.73
2019-03-28T08:16:43.194Z,31.53
2019-03-28T08:19:11.710Z,32.00
2019-03-28T08:21:40.067Z,28.97
2019-03-28T08:24:09.655Z,30.83
2019-03-28T08:26:38.297Z,38.67
2019-03-28T08:29:06.685Z,32.30
2019-03-28T08:34:23.994Z,27.10
2019-03-28T08:36:52.451Z,23.00
2019-03-28T08:39:20.985Z,33.10
2019-03-28T08:41:50.363Z,28.43
2019-03-28T08:44:22.405Z,33.80
2019-03-28T08:46:50.763Z,31.73
2019-03-28T08:49:19.154Z,24.07
2019-03-28T08:51:47.604Z,29.20
2019-03-28T08:54:15.956Z,31.93
2019-03-28T08:56:44.455Z,32.03
2019-03-28T08:59:12.806Z,33.87
2019-03-28T09:01:42.247Z,28.77
2019-03-28T09:04:10.666Z,26.63
2019-03-28T09:06:39.023Z,34.13
2019-03-28T09:09:09.304Z,28.23
2019-03-28T09:11:37.686Z,26.17
2019-03-28T09:14:06.468Z,31.30
2019-03-28T09:16:34.939Z,32.17
2019-03-28T09:19:03.376Z,30.60
2019-03-28T09:21:31.845Z,29.30
2019-03-28T09:24:00.210Z,27.47
2019-03-28T09:26:28.566Z,26.47
2019-03-28T09:28:57.017Z,30.80
2019-03-28T09:31:25.523Z,29.67
2019-03-28T09:33:53.899Z,25.87
2019-03-28T09:36:22.316Z,26.50
2019-03-28T09:38:50.674Z,21.50
2019-03-28T09:41:19.072Z,24.33
2019-03-28T09:43:55.316Z,22.50
2019-03-28T09:46:17.415Z,28.20
2019-03-28T09:48:45.895Z,22.77
2019-03-28T09:51:14.380Z,25.23
2019-03-28T09:53:42.859Z,30.07
2019-03-28T09:56:11.266Z,25.93
2019-03-28T09:58:39.672Z,29.53
2019-03-28T10:01:08.104Z,29.43
2019-03-28T10:03:36.525Z,25.87
2019-03-28T10:06:04.884Z,24.07
2019-03-28T10:08:33.332Z,28.80
2019-03-28T10:11:01.705Z,25.20
2019-03-28T10:13:30.157Z,30.67
2019-03-28T10:15:58.564Z,28.03
2019-03-28T10:18:29.972Z,21.50
2019-03-28T10:20:57.004Z,26.07
2019-03-28T10:23:25.396Z,23.20
2019-03-28T10:25:53.798Z,25.27
2019-03-28T10:28:22.194Z,22.47
2019-03-28T10:30:50.531Z,21.10
2019-03-28T10:33:18.979Z,21.93
2019-03-28T10:35:47.369Z,21.87
2019-03-28T10:38:15.738Z,22.63
2019-03-28T10:40:44.451Z,21.37
2019-03-28T10:43:12.795Z,20.13
2019-03-28T10:45:41.170Z,21.87
2019-03-28T10:48:09.558Z,21.47
2019-03-28T10:50:45.366Z,24.97
2019-03-28T10:53:07.926Z,21.80
2019-03-28T10:55:36.526Z,16.67
2019-03-28T10:58:17.555Z,17.13
2019-03-28T11:00:35.032Z,17.07
2019-03-28T11:03:03.591Z,16.40
2019-03-28T11:05:40.558Z,12.63
2019-03-28T11:08:36.670Z,12.70
2019-03-28T11:11:08.612Z,13.40
2019-03-28T11:13:37.068Z,12.40
2019-03-28T11:16:05.538Z,13.83
2019-03-28T11:18:33.901Z,10.53
2019-03-28T11:21:09.615Z,11.47
2019-03-28T11:23:38.005Z,10.93
2019-03-28T11:29:19.528Z,10.93
2019-03-28T11:31:52.176Z,13.67
2019-03-28T11:34:18.076Z,13.73
2019-03-28T11:36:47.829Z,12.60
2019-03-28T11:39:16.251Z,9.73
2019-03-28T11:41:44.777Z,11.60
2019-03-28T11:44:13.213Z,9.67
2019-03-28T11:46:43.043Z,10.30
2019-03-28T11:49:11.407Z,14.67
2019-03-28T11:51:39.822Z,14.80
2019-03-28T11:54:08.217Z,10.47
2019-03-28T11:56:36.593Z,11.00
2019-03-28T11:59:06.251Z,14.30
2019-03-28T12:01:34.780Z,10.83
2019-03-28T12:04:03.106Z,11.53
2019-03-28T12:06:31.601Z,13.80
2019-03-28T12:08:59.990Z,12.90
2019-03-28T12:11:28.387Z,16.80
2019-03-28T12:13:59.588Z,13.73
2019-03-28T12:16:26.783Z,13.00
2019-03-28T12:18:55.173Z,14.10
2019-03-28T12:21:23.601Z,11.43
2019-03-28T12:23:52.010Z,18.47
2019-03-28T12:26:20.794Z,11.57
2019-03-28T12:28:49.246Z,15.23
2019-03-28T12:31:18.747Z,16.67
2019-03-28T12:33:47.152Z,13.93
2019-03-28T12:36:15.682Z,14.03
2019-03-28T12:38:44.154Z,14.83
2019-03-28T12:41:12.621Z,21.00
2019-03-28T12:43:41.038Z,15.83
2019-03-28T12:46:09.591Z,13.67
2019-03-28T12:48:38.017Z,19.90
2019-03-28T12:51:09.118Z,17.73
2019-03-28T12:53:37.798Z,15.73
2019-03-28T12:56:06.313Z,16.07
2019-03-28T12:58:34.675Z,17.50
2019-03-28T13:01:03.045Z,16.47
2019-03-28T13:03:44.247Z,16.73
2019-03-28T13:06:01.487Z,17.10
2019-03-28T13:08:29.967Z,17.33
2019-03-28T13:10:58.362Z,16.57
2019-03-28T13:13:26.778Z,14.30
2019-03-28T13:15:55.256Z,13.87
2019-03-28T13:18:24.894Z,16.20
2019-03-28T13:20:53.258Z,14.53
2019-03-28T13:23:21.701Z,11.30
2019-03-28T13:25:50.121Z,12.10
2019-03-28T13:28:18.472Z,11.53
2019-03-28T13:30:46.917Z,15.53
2019-03-28T13:33:15.347Z,12.93
2019-03-28T13:35:43.665Z,12.67
2019-03-28T13:38:12.102Z,12.33
2019-03-28T13:40:40.474Z,13.43
2019-03-28T13:43:09.875Z,14.13
2019-03-28T13:45:38.254Z,14.73
2019-03-28T13:48:06.709Z,13.73
2019-03-28T13:50:35.057Z,11.80
2019-03-28T13:53:03.453Z,13.60
2019-03-28T13:55:31.961Z,12.27
2019-03-28T13:58:00.299Z,11.97
2019-03-28T14:00:32.945Z,12.07
2019-03-28T14:03:01.314Z,13.53
2019-03-28T14:05:29.940Z,14.87
2019-03-28T14:07:58.268Z,15.00
2019-03-28T14:10:26.640Z,14.60
2019-03-28T14:12:55.012Z,12.77
2019-03-28T14:15:23.365Z,14.77
2019-03-28T14:17:51.711Z,14.73
2019-03-28T14:20:22.372Z,14.03
2019-03-28T14:22:50.046Z,12.63
2019-03-28T14:25:18.422Z,13.77
2019-03-28T14:27:46.753Z,16.27
2019-03-28T14:30:16.889Z,14.70
2019-03-28T14:32:53.198Z,14.23
2019-03-28T14:35:15.644Z,14.17
2019-03-28T14:37:44.031Z,13.80
2019-03-28T14:40:12.724Z,13.17
2019-03-28T14:42:41.273Z,17.30
2019-03-28T14:45:10.115Z,15.77
2019-03-28T14:47:38.692Z,16.87
2019-03-28T14:50:08.763Z,11.43
2019-03-28T14:52:37.410Z,16.20
2019-03-28T14:55:06.144Z,14.43
2019-03-28T14:57:34.902Z,20.00
2019-03-28T15:00:06.689Z,10.50
2019-03-28T15:02:34.998Z,15.00
2019-03-28T15:05:05.660Z,13.43
2019-03-28T15:07:34.151Z,13.57
2019-03-28T15:10:02.718Z,15.70
2019-03-28T15:12:31.416Z,14.70
2019-03-28T15:14:59.786Z,15.70
2019-03-28T15:17:29.705Z,13.83
2019-03-28T15:19:58.169Z,12.17
2019-03-28T15:22:26.507Z,10.60
2019-03-28T15:24:54.980Z,12.73
2019-03-28T15:27:23.349Z,11.87
2019-03-28T15:29:51.774Z,11.30
2019-03-28T15:32:20.133Z,12.07
2019-03-28T15:34:48.664Z,9.00
2019-03-28T15:37:17.048Z,12.00
2019-03-28T15:43:06.946Z,9.70
2019-03-28T15:45:35.278Z,12.27
2019-03-28T15:48:08.129Z,12.13
2019-03-28T15:50:54.697Z,13.00
2019-03-28T15:56:44.480Z,11.93
2019-03-28T15:59:12.914Z,14.30
2019-03-28T16:04:50.952Z,12.77
2019-03-28T16:07:19.362Z,13.83
2019-03-28T16:09:47.758Z,13.77
2019-03-28T16:12:16.436Z,12.60
2019-03-28T16:14:44.789Z,15.67
2019-03-28T16:17:13.311Z,13.60
2019-03-28T16:19:44.971Z,9.77
2019-03-28T16:22:11.946Z,11.93
2019-03-28T16:24:40.439Z,13.67
2019-03-28T16:27:08.818Z,10.63
2019-03-28T16:29:39.230Z,11.83
2019-03-28T16:32:07.656Z,11.90
2019-03-28T16:34:36.019Z,18.70
2019-03-28T16:37:04.376Z,21.23
2019-03-28T16:39:32.715Z,16.03
2019-03-28T16:42:01.071Z,14.57
2019-03-28T16:44:29.416Z,10.33
2019-03-28T16:46:57.834Z,10.03
2019-03-28T16:49:26.223Z,12.97
2019-03-28T16:51:54.583Z,15.87
2019-03-28T16:54:23.212Z,13.27
2019-03-28T16:56:51.587Z,15.23
2019-03-28T16:59:19.978Z,14.03
2019-03-28T17:01:48.380Z,13.27
2019-03-28T17:04:20.892Z,12.07
2019-03-28T17:06:47.239Z,11.10
2019-03-28T17:09:15.631Z,14.23
2019-03-28T17:11:44.098Z,13.37
2019-03-28T17:14:12.500Z,13.13
2019-03-28T17:19:50.459Z,10.67
2019-03-28T17:22:21.575Z,12.07
2019-03-28T17:24:50.431Z,11.30
2019-03-28T17:27:18.856Z,12.60
2019-03-28T17:29:47.637Z,12.47
2019-03-28T17:32:16.229Z,12.43
2019-03-28T17:34:46.032Z,15.90
2019-03-28T17:37:14.647Z,18.03
2019-03-28T17:39:43.840Z,20.83
2019-03-28T17:42:12.255Z,13.67
2019-03-28T17:44:40.739Z,14.10
2019-03-28T17:47:09.200Z,10.03
2019-03-28T17:49:37.606Z,11.63
2019-03-28T17:52:06.082Z,10.67
2019-03-28T17:54:37.728Z,12.53
2019-03-28T17:57:06.354Z,15.43
2019-03-28T17:59:34.730Z,14.73
2019-03-28T18:02:03.113Z,11.63
2019-03-28T18:04:32.515Z,15.60
2019-03-28T18:07:01.280Z,12.70
2019-03-28T18:09:41.483Z,18.80
2019-03-28T18:12:27.018Z,18.20
2019-03-28T18:15:01.397Z,18.90
2019-03-28T18:17:43.170Z,15.53
2019-03-28T18:22:54.914Z,13.10
2019-03-28T18:25:31.805Z,10.57
2019-03-28T18:28:11.429Z,10.37
2019-03-28T18:31:08.560Z,18.37
2019-03-28T18:33:52.947Z,20.00
2019-03-28T18:36:26.900Z,17.73
2019-03-28T18:45:39.660Z,11.40
2019-03-28T18:48:30.782Z,12.10
2019-03-28T18:50:49.138Z,15.70
2019-03-28T18:53:20.034Z,15.43
2019-03-28T18:55:48.374Z,17.43
2019-03-28T18:58:16.713Z,16.20
2019-03-28T19:00:47.876Z,12.93
2019-03-28T19:03:15.058Z,11.30
2019-03-28T19:05:43.464Z,12.40
2019-03-28T19:08:11.871Z,15.07
2019-03-28T19:10:41.466Z,12.10
2019-03-28T19:13:09.846Z,10.53
2019-03-28T19:15:38.183Z,11.20
2019-03-28T19:18:06.562Z,12.63
2019-03-28T19:23:56.815Z,12.30
2019-03-28T19:26:25.208Z,12.77
2019-03-28T19:28:56.083Z,18.37
2019-03-28T19:31:24.112Z,14.07
2019-03-28T19:33:54.903Z,16.53
2019-03-28T19:36:23.303Z,14.57
2019-03-28T19:38:52.087Z,15.50
2019-03-28T19:41:20.467Z,12.93
2019-03-28T19:43:49.845Z,9.20
2019-03-28T19:46:18.383Z,12.97
2019-03-28T19:48:46.774Z,15.67
2019-03-28T19:51:15.185Z,14.50
2019-03-28T19:53:44.048Z,12.67
2019-03-28T19:56:15.909Z,15.37
2019-03-28T19:58:45.992Z,12.77
2019-03-28T20:01:14.331Z,14.97
2019-03-28T20:03:47.086Z,12.33
2019-03-28T20:06:21.968Z,15.53
2019-03-28T20:08:45.644Z,18.07
2019-03-28T20:11:14.030Z,14.57
2019-03-28T20:13:42.395Z,15.93
2019-03-28T20:16:11.097Z,14.77
2019-03-28T20:18:42.720Z,11.40
2019-03-28T20:21:09.867Z,12.33
2019-03-28T20:23:38.490Z,15.97
2019-03-28T20:26:08.231Z,13.00
2019-03-28T20:28:38.536Z,14.83
2019-03-28T20:31:06.936Z,13.33
2019-03-28T20:33:35.307Z,11.77
2019-03-28T20:36:30.002Z,12.73
2019-03-28T20:38:33.962Z,11.67
2019-03-28T20:41:02.368Z,12.70
2019-03-28T20:43:32.718Z,11.40
2019-03-28T20:46:01.252Z,11.60
2019-03-28T20:48:38.939Z,11.10
2019-03-28T20:57:58.807Z,13.63
2019-03-28T21:04:42.921Z,12.43
2019-03-28T21:07:13.016Z,18.03
2019-03-28T21:32:39.806Z,15.93
2019-03-28T21:44:57.985Z,12.43
2019-03-28T21:50:39.526Z,12.83
2019-03-28T21:53:16.276Z,14.57
2019-03-28T21:55:55.569Z,14.43
2019-03-28T21:58:37.023Z,12.77
2019-03-28T22:04:29.119Z,12.07
2019-03-28T22:06:55.111Z,12.50
2019-03-28T22:13:27.910Z,10.77
2019-03-28T22:16:58.957Z,16.00
2019-03-28T22:22:38.874Z,11.43
2019-03-28T22:29:01.294Z,12.03
2019-03-28T22:40:47.405Z,13.83
2019-03-28T22:44:29.940Z,14.67
2019-03-28T22:47:12.244Z,15.47
2019-03-28T22:52:54.301Z,14.43
2019-03-28T22:55:47.084Z,10.73
2019-03-28T22:58:12.917Z,12.17
2019-03-28T23:00:50.564Z,11.10
2019-03-28T23:03:18.844Z,10.20
2019-03-28T23:05:47.179Z,13.90
2019-03-28T23:08:20.711Z,14.77
2019-03-28T23:10:49.122Z,17.63
2019-03-28T23:13:17.356Z,12.50
2019-03-28T23:15:47.033Z,12.53
2019-03-28T23:18:17.259Z,11.40
2019-03-28T23:20:56.388Z,12.00
2019-03-28T23:23:25.891Z,11.20
2019-03-28T23:25:54.587Z,10.87
2019-03-28T23:28:33.398Z,13.37
2019-03-28T23:31:03.066Z,13.70
2019-03-28T23:33:34.872Z,13.53
2019-03-28T23:36:03.173Z,10.57
2019-03-28T23:38:31.428Z,15.67
2019-03-28T23:41:02.416Z,10.90
2019-03-28T23:43:55.747Z,12.73
2019-03-28T23:46:24.032Z,12.10
2019-03-28T23:48:58.545Z,13.93
2019-03-28T23:51:41.129Z,14.43
2019-03-28T23:54:10.555Z,11.87
2019-03-28T23:56:40.439Z,13.63
2019-03-28T23:59:18.067Z,13.97
